sensor_id;sensor_type;location;lat;lon;timestamp;temperature;humidity
65582;DHT22;52231;40.090;18.348;2022-11-20T00:02:10;19.60;90.80
65582;DHT22;52231;40.090;18.348;2022-11-20T00:04:39;19.60;90.80
65582;DHT22;52231;40.090;18.348;2022-11-20T00:07:08;19.50;90.90
65582;DHT22;52231;40.090;18.348;2022-11-20T00:09:36;19.50;91.00
65582;DHT22;52231;40.090;18.348;2022-11-20T00:12:04;19.50;91.10
65582;DHT22;52231;40.090;18.348;2022-11-20T00:14:32;19.50;91.10
65582;DHT22;52231;40.090;18.348;2022-11-20T00:17:01;19.50;91.20
65582;DHT22;52231;40.090;18.348;2022-11-20T00:19:28;19.50;91.20
65582;DHT22;52231;40.090;18.348;2022-11-20T00:21:57;19.50;91.30
65582;DHT22;52231;40.090;18.348;2022-11-20T00:24:25;19.50;91.20
65582;DHT22;52231;40.090;18.348;2022-11-20T00:26:53;19.50;91.20
65582;DHT22;52231;40.090;18.348;2022-11-20T00:29:21;19.50;91.20
65582;DHT22;52231;40.090;18.348;2022-11-20T00:31:49;19.50;91.20
65582;DHT22;52231;40.090;18.348;2022-11-20T00:34:17;19.50;91.20
65582;DHT22;52231;40.090;18.348;2022-11-20T00:36:45;19.50;91.20
65582;DHT22;52231;40.090;18.348;2022-11-20T00:39:13;19.50;91.20
65582;DHT22;52231;40.090;18.348;2022-11-20T00:41:41;19.50;91.20
65582;DHT22;52231;40.090;18.348;2022-11-20T00:44:09;19.60;91.20
65582;DHT22;52231;40.090;18.348;2022-11-20T00:46:37;19.60;91.10
65582;DHT22;52231;40.090;18.348;2022-11-20T00:49:05;19.50;91.10
65582;DHT22;52231;40.090;18.348;2022-11-20T00:51:33;19.60;90.80
65582;DHT22;52231;40.090;18.348;2022-11-20T00:54:01;19.50;90.70
65582;DHT22;52231;40.090;18.348;2022-11-20T00:56:29;19.50;90.60
65582;DHT22;52231;40.090;18.348;2022-11-20T00:58:59;19.50;90.20
65582;DHT22;52231;40.090;18.348;2022-11-20T01:01:28;19.50;90.20
65582;DHT22;52231;40.090;18.348;2022-11-20T01:03:59;19.60;90.30
65582;DHT22;52231;40.090;18.348;2022-11-20T01:06:30;19.60;90.40
65582;DHT22;52231;40.090;18.348;2022-11-20T01:09:04;19.60;90.50
65582;DHT22;52231;40.090;18.348;2022-11-20T01:11:35;19.60;90.50
65582;DHT22;52231;40.090;18.348;2022-11-20T01:14:06;19.60;90.50
65582;DHT22;52231;40.090;18.348;2022-11-20T01:16:38;19.50;90.50
65582;DHT22;52231;40.090;18.348;2022-11-20T01:19:36;19.50;91.10
65582;DHT22;52231;40.090;18.348;2022-11-20T01:26:55;19.20;92.20
65582;DHT22;52231;40.090;18.348;2022-11-20T01:29:23;19.10;92.70
65582;DHT22;52231;40.090;18.348;2022-11-20T01:31:52;19.10;92.90
65582;DHT22;52231;40.090;18.348;2022-11-20T01:34:22;19.00;93.00
65582;DHT22;52231;40.090;18.348;2022-11-20T01:36:51;19.00;93.00
65582;DHT22;52231;40.090;18.348;2022-11-20T01:39:22;18.90;93.10
65582;DHT22;52231;40.090;18.348;2022-11-20T01:41:53;18.90;93.10
65582;DHT22;52231;40.090;18.348;2022-11-20T01:52:42;18.80;93.50
65582;DHT22;52231;40.090;18.348;2022-11-20T01:55:17;18.90;93.60
65582;DHT22;52231;40.090;18.348;2022-11-20T01:57:47;18.90;93.80
65582;DHT22;52231;40.090;18.348;2022-11-20T02:00:18;18.90;93.80
65582;DHT22;52231;40.090;18.348;2022-11-20T02:02:53;18.90;93.80
65582;DHT22;52231;40.090;18.348;2022-11-20T02:08:00;18.80;93.80
65582;DHT22;52231;40.090;18.348;2022-11-20T02:10:29;18.80;93.70
65582;DHT22;52231;40.090;18.348;2022-11-20T02:12:58;18.70;93.70
65582;DHT22;52231;40.090;18.348;2022-11-20T02:15:45;18.70;93.70
65582;DHT22;52231;40.090;18.348;2022-11-20T02:18:16;18.60;93.80
65582;DHT22;52231;40.090;18.348;2022-11-20T02:20:47;18.60;93.90
65582;DHT22;52231;40.090;18.348;2022-11-20T02:25:48;18.70;94.00
65582;DHT22;52231;40.090;18.348;2022-11-20T02:28:18;18.70;94.00
65582;DHT22;52231;40.090;18.348;2022-11-20T02:30:46;18.70;94.10
65582;DHT22;52231;40.090;18.348;2022-11-20T02:33:14;18.80;94.10
65582;DHT22;52231;40.090;18.348;2022-11-20T02:35:46;18.80;94.20
65582;DHT22;52231;40.090;18.348;2022-11-20T02:38:15;18.80;94.10
65582;DHT22;52231;40.090;18.348;2022-11-20T02:40:44;18.80;94.20
65582;DHT22;52231;40.090;18.348;2022-11-20T02:43:12;18.70;94.20
65582;DHT22;52231;40.090;18.348;2022-11-20T02:45:41;18.80;94.10
65582;DHT22;52231;40.090;18.348;2022-11-20T02:48:10;18.80;94.20
65582;DHT22;52231;40.090;18.348;2022-11-20T02:50:40;18.80;94.10
65582;DHT22;52231;40.090;18.348;2022-11-20T02:53:08;18.80;94.20
65582;DHT22;52231;40.090;18.348;2022-11-20T02:55:36;18.80;94.20
65582;DHT22;52231;40.090;18.348;2022-11-20T02:58:04;18.80;94.20
65582;DHT22;52231;40.090;18.348;2022-11-20T03:00:32;18.80;94.20
65582;DHT22;52231;40.090;18.348;2022-11-20T03:03:01;18.80;94.20
65582;DHT22;52231;40.090;18.348;2022-11-20T03:05:29;18.80;94.20
65582;DHT22;52231;40.090;18.348;2022-11-20T03:07:57;18.80;94.30
65582;DHT22;52231;40.090;18.348;2022-11-20T03:10:25;18.80;94.20
65582;DHT22;52231;40.090;18.348;2022-11-20T03:12:54;18.80;94.20
65582;DHT22;52231;40.090;18.348;2022-11-20T03:15:23;18.80;94.20
65582;DHT22;52231;40.090;18.348;2022-11-20T03:17:55;18.90;94.10
65582;DHT22;52231;40.090;18.348;2022-11-20T03:20:23;18.80;94.10
65582;DHT22;52231;40.090;18.348;2022-11-20T03:35:54;17.90;90.60
65582;DHT22;52231;40.090;18.348;2022-11-20T03:38:22;17.10;90.50
65582;DHT22;52231;40.090;18.348;2022-11-20T03:40:49;16.80;90.70
65582;DHT22;52231;40.090;18.348;2022-11-20T03:43:17;16.60;91.20
65582;DHT22;52231;40.090;18.348;2022-11-20T03:45:46;16.40;91.50
65582;DHT22;52231;40.090;18.348;2022-11-20T03:48:14;16.30;91.30
65582;DHT22;52231;40.090;18.348;2022-11-20T03:50:41;16.10;91.50
65582;DHT22;52231;40.090;18.348;2022-11-20T03:53:09;16.10;91.90
65582;DHT22;52231;40.090;18.348;2022-11-20T03:55:38;16.00;91.90
65582;DHT22;52231;40.090;18.348;2022-11-20T03:58:05;16.00;92.20
65582;DHT22;52231;40.090;18.348;2022-11-20T04:00:34;16.00;92.30
65582;DHT22;52231;40.090;18.348;2022-11-20T04:03:02;16.00;92.20
65582;DHT22;52231;40.090;18.348;2022-11-20T04:05:30;16.10;92.40
65582;DHT22;52231;40.090;18.348;2022-11-20T04:07:58;16.10;92.50
65582;DHT22;52231;40.090;18.348;2022-11-20T04:10:26;16.20;92.70
65582;DHT22;52231;40.090;18.348;2022-11-20T04:12:54;16.30;92.90
65582;DHT22;52231;40.090;18.348;2022-11-20T04:15:22;16.30;93.00
65582;DHT22;52231;40.090;18.348;2022-11-20T04:17:50;16.40;92.90
65582;DHT22;52231;40.090;18.348;2022-11-20T04:20:20;16.40;92.90
65582;DHT22;52231;40.090;18.348;2022-11-20T04:22:48;16.40;92.90
65582;DHT22;52231;40.090;18.348;2022-11-20T04:25:16;16.50;93.10
65582;DHT22;52231;40.090;18.348;2022-11-20T04:27:44;16.80;94.00
65582;DHT22;52231;40.090;18.348;2022-11-20T04:30:12;17.30;94.40
65582;DHT22;52231;40.090;18.348;2022-11-20T04:32:40;17.80;94.60
65582;DHT22;52231;40.090;18.348;2022-11-20T04:35:08;18.20;94.50
65582;DHT22;52231;40.090;18.348;2022-11-20T04:37:36;18.30;94.50
65582;DHT22;52231;40.090;18.348;2022-11-20T04:40:05;18.40;94.60
65582;DHT22;52231;40.090;18.348;2022-11-20T04:42:33;18.50;94.50
65582;DHT22;52231;40.090;18.348;2022-11-20T04:45:01;18.60;94.40
65582;DHT22;52231;40.090;18.348;2022-11-20T04:47:29;18.60;94.30
65582;DHT22;52231;40.090;18.348;2022-11-20T04:49:57;18.60;94.20
65582;DHT22;52231;40.090;18.348;2022-11-20T04:52:25;18.60;94.20
65582;DHT22;52231;40.090;18.348;2022-11-20T04:54:53;18.70;94.10
65582;DHT22;52231;40.090;18.348;2022-11-20T04:57:21;18.70;94.00
65582;DHT22;52231;40.090;18.348;2022-11-20T04:59:49;18.70;93.90
65582;DHT22;52231;40.090;18.348;2022-11-20T05:02:17;18.70;93.90
65582;DHT22;52231;40.090;18.348;2022-11-20T05:04:45;18.80;93.90
65582;DHT22;52231;40.090;18.348;2022-11-20T05:11:18;18.70;94.00
65582;DHT22;52231;40.090;18.348;2022-11-20T05:21:38;18.40;93.60
65582;DHT22;52231;40.090;18.348;2022-11-20T05:24:31;18.10;93.50
65582;DHT22;52231;40.090;18.348;2022-11-20T05:26:59;18.00;93.50
65582;DHT22;52231;40.090;18.348;2022-11-20T05:29:27;18.00;93.50
65582;DHT22;52231;40.090;18.348;2022-11-20T05:31:55;17.90;93.50
65582;DHT22;52231;40.090;18.348;2022-11-20T05:34:23;17.90;93.60
65582;DHT22;52231;40.090;18.348;2022-11-20T05:36:51;17.90;93.60
65582;DHT22;52231;40.090;18.348;2022-11-20T05:39:19;17.90;93.70
65582;DHT22;52231;40.090;18.348;2022-11-20T05:41:47;17.90;93.70
65582;DHT22;52231;40.090;18.348;2022-11-20T05:44:35;17.90;93.80
65582;DHT22;52231;40.090;18.348;2022-11-20T05:47:03;18.00;94.00
65582;DHT22;52231;40.090;18.348;2022-11-20T05:49:31;18.10;94.10
65582;DHT22;52231;40.090;18.348;2022-11-20T05:51:59;18.10;94.10
65582;DHT22;52231;40.090;18.348;2022-11-20T05:54:28;18.10;94.10
65582;DHT22;52231;40.090;18.348;2022-11-20T05:56:57;18.10;94.10
65582;DHT22;52231;40.090;18.348;2022-11-20T05:59:25;18.20;94.20
65582;DHT22;52231;40.090;18.348;2022-11-20T06:01:53;18.20;94.20
65582;DHT22;52231;40.090;18.348;2022-11-20T06:04:21;18.30;94.20
65582;DHT22;52231;40.090;18.348;2022-11-20T06:06:49;18.30;94.30
65582;DHT22;52231;40.090;18.348;2022-11-20T06:09:17;18.30;94.30
65582;DHT22;52231;40.090;18.348;2022-11-20T06:11:45;18.30;94.30
65582;DHT22;52231;40.090;18.348;2022-11-20T06:14:13;18.30;94.30
65582;DHT22;52231;40.090;18.348;2022-11-20T06:16:41;18.30;94.30
65582;DHT22;52231;40.090;18.348;2022-11-20T06:19:09;18.30;94.30
65582;DHT22;52231;40.090;18.348;2022-11-20T06:21:39;18.30;94.30
65582;DHT22;52231;40.090;18.348;2022-11-20T06:24:09;18.40;94.30
65582;DHT22;52231;40.090;18.348;2022-11-20T06:26:37;18.40;94.30
65582;DHT22;52231;40.090;18.348;2022-11-20T06:29:07;18.40;94.30
65582;DHT22;52231;40.090;18.348;2022-11-20T06:31:36;18.40;94.20
65582;DHT22;52231;40.090;18.348;2022-11-20T06:34:05;18.40;94.20
65582;DHT22;52231;40.090;18.348;2022-11-20T06:36:34;18.40;94.10
65582;DHT22;52231;40.090;18.348;2022-11-20T06:39:02;18.40;94.10
65582;DHT22;52231;40.090;18.348;2022-11-20T06:41:30;18.50;94.10
65582;DHT22;52231;40.090;18.348;2022-11-20T06:43:58;18.50;94.10
65582;DHT22;52231;40.090;18.348;2022-11-20T06:46:26;18.50;93.90
65582;DHT22;52231;40.090;18.348;2022-11-20T06:48:54;18.60;93.90
65582;DHT22;52231;40.090;18.348;2022-11-20T06:51:23;18.70;93.90
65582;DHT22;52231;40.090;18.348;2022-11-20T06:53:51;18.80;93.90
65582;DHT22;52231;40.090;18.348;2022-11-20T06:56:19;18.80;93.80
65582;DHT22;52231;40.090;18.348;2022-11-20T06:58:47;18.80;93.70
65582;DHT22;52231;40.090;18.348;2022-11-20T07:01:15;18.90;93.60
65582;DHT22;52231;40.090;18.348;2022-11-20T07:03:44;19.00;93.60
65582;DHT22;52231;40.090;18.348;2022-11-20T07:06:13;19.10;93.40
65582;DHT22;52231;40.090;18.348;2022-11-20T07:08:41;19.10;93.30
65582;DHT22;52231;40.090;18.348;2022-11-20T07:11:12;19.20;93.10
65582;DHT22;52231;40.090;18.348;2022-11-20T07:13:40;19.20;92.90
65582;DHT22;52231;40.090;18.348;2022-11-20T07:16:08;19.30;92.60
65582;DHT22;52231;40.090;18.348;2022-11-20T07:18:37;19.30;92.40
65582;DHT22;52231;40.090;18.348;2022-11-20T07:21:07;19.30;92.20
65582;DHT22;52231;40.090;18.348;2022-11-20T07:23:37;19.30;92.20
65582;DHT22;52231;40.090;18.348;2022-11-20T07:26:07;19.30;91.90
65582;DHT22;52231;40.090;18.348;2022-11-20T07:28:36;19.30;91.80
65582;DHT22;52231;40.090;18.348;2022-11-20T07:31:05;19.40;91.60
65582;DHT22;52231;40.090;18.348;2022-11-20T07:33:34;19.40;91.50
65582;DHT22;52231;40.090;18.348;2022-11-20T07:36:02;19.40;90.90
65582;DHT22;52231;40.090;18.348;2022-11-20T07:38:30;19.50;91.10
65582;DHT22;52231;40.090;18.348;2022-11-20T07:40:58;19.50;90.80
65582;DHT22;52231;40.090;18.348;2022-11-20T07:43:29;19.50;90.50
65582;DHT22;52231;40.090;18.348;2022-11-20T07:45:59;19.40;90.60
65582;DHT22;52231;40.090;18.348;2022-11-20T07:48:27;19.40;90.40
65582;DHT22;52231;40.090;18.348;2022-11-20T07:50:56;19.40;90.30
65582;DHT22;52231;40.090;18.348;2022-11-20T07:53:24;19.30;90.30
65582;DHT22;52231;40.090;18.348;2022-11-20T07:55:52;19.30;90.30
65582;DHT22;52231;40.090;18.348;2022-11-20T07:58:21;19.30;90.50
65582;DHT22;52231;40.090;18.348;2022-11-20T08:00:49;19.20;90.60
65582;DHT22;52231;40.090;18.348;2022-11-20T08:03:17;19.10;90.70
65582;DHT22;52231;40.090;18.348;2022-11-20T08:05:48;19.00;90.90
65582;DHT22;52231;40.090;18.348;2022-11-20T08:08:16;19.00;90.80
65582;DHT22;52231;40.090;18.348;2022-11-20T08:10:44;19.00;90.90
65582;DHT22;52231;40.090;18.348;2022-11-20T08:13:12;19.00;91.10
65582;DHT22;52231;40.090;18.348;2022-11-20T08:15:58;19.10;91.10
65582;DHT22;52231;40.090;18.348;2022-11-20T08:18:27;19.10;90.90
65582;DHT22;52231;40.090;18.348;2022-11-20T08:20:57;19.00;90.20
65582;DHT22;52231;40.090;18.348;2022-11-20T08:23:25;18.80;89.40
65582;DHT22;52231;40.090;18.348;2022-11-20T08:25:53;18.70;88.60
65582;DHT22;52231;40.090;18.348;2022-11-20T08:28:21;18.70;87.30
65582;DHT22;52231;40.090;18.348;2022-11-20T08:30:49;18.70;86.20
65582;DHT22;52231;40.090;18.348;2022-11-20T08:33:17;18.40;82.70
65582;DHT22;52231;40.090;18.348;2022-11-20T08:35:46;18.30;80.60
65582;DHT22;52231;40.090;18.348;2022-11-20T08:38:14;18.30;80.90
65582;DHT22;52231;40.090;18.348;2022-11-20T08:40:42;18.30;80.30
65582;DHT22;52231;40.090;18.348;2022-11-20T08:43:30;18.40;80.30
65582;DHT22;52231;40.090;18.348;2022-11-20T08:45:58;18.60;80.70
65582;DHT22;52231;40.090;18.348;2022-11-20T08:48:26;18.60;80.90
65582;DHT22;52231;40.090;18.348;2022-11-20T08:50:58;18.80;81.90
65582;DHT22;52231;40.090;18.348;2022-11-20T08:53:27;18.90;82.60
65582;DHT22;52231;40.090;18.348;2022-11-20T08:55:56;19.10;82.70
65582;DHT22;52231;40.090;18.348;2022-11-20T08:58:25;19.10;81.00
65582;DHT22;52231;40.090;18.348;2022-11-20T09:00:54;19.30;81.50
65582;DHT22;52231;40.090;18.348;2022-11-20T09:03:22;19.40;80.80
65582;DHT22;52231;40.090;18.348;2022-11-20T09:05:50;19.80;80.40
65582;DHT22;52231;40.090;18.348;2022-11-20T09:08:18;20.00;79.80
65582;DHT22;52231;40.090;18.348;2022-11-20T09:10:51;19.90;79.30
65582;DHT22;52231;40.090;18.348;2022-11-20T09:13:21;19.80;80.90
65582;DHT22;52231;40.090;18.348;2022-11-20T09:15:57;19.80;81.00
65582;DHT22;52231;40.090;18.348;2022-11-20T09:18:27;20.00;81.60
65582;DHT22;52231;40.090;18.348;2022-11-20T09:20:59;20.30;81.70
65582;DHT22;52231;40.090;18.348;2022-11-20T09:23:32;20.60;82.70
65582;DHT22;52231;40.090;18.348;2022-11-20T09:26:06;20.70;82.30
65582;DHT22;52231;40.090;18.348;2022-11-20T09:28:35;20.70;82.60
65582;DHT22;52231;40.090;18.348;2022-11-20T09:31:07;20.70;83.30
65582;DHT22;52231;40.090;18.348;2022-11-20T09:33:35;20.70;83.70
65582;DHT22;52231;40.090;18.348;2022-11-20T09:36:05;20.90;82.20
65582;DHT22;52231;40.090;18.348;2022-11-20T09:38:33;21.00;81.30
65582;DHT22;52231;40.090;18.348;2022-11-20T09:41:06;21.20;80.90
65582;DHT22;52231;40.090;18.348;2022-11-20T09:43:57;21.30;78.90
65582;DHT22;52231;40.090;18.348;2022-11-20T09:46:57;21.50;78.00
65582;DHT22;52231;40.090;18.348;2022-11-20T09:49:39;21.50;77.60
65582;DHT22;52231;40.090;18.348;2022-11-20T09:55:15;21.40;77.50
65582;DHT22;52231;40.090;18.348;2022-11-20T09:57:46;21.40;77.00
65582;DHT22;52231;40.090;18.348;2022-11-20T10:00:16;21.40;76.30
65582;DHT22;52231;40.090;18.348;2022-11-20T10:02:48;21.40;76.00
65582;DHT22;52231;40.090;18.348;2022-11-20T10:05:34;21.60;76.60
65582;DHT22;52231;40.090;18.348;2022-11-20T10:08:39;21.80;75.90
65582;DHT22;52231;40.090;18.348;2022-11-20T10:11:51;22.10;76.40
65582;DHT22;52231;40.090;18.348;2022-11-20T10:14:33;22.50;74.00
65582;DHT22;52231;40.090;18.348;2022-11-20T10:25:19;23.30;70.40
65582;DHT22;52231;40.090;18.348;2022-11-20T10:28:04;23.20;71.70
65582;DHT22;52231;40.090;18.348;2022-11-20T10:30:39;23.00;71.00
65582;DHT22;52231;40.090;18.348;2022-11-20T10:33:31;23.00;70.20
65582;DHT22;52231;40.090;18.348;2022-11-20T10:39:32;23.80;69.10
65582;DHT22;52231;40.090;18.348;2022-11-20T10:42:01;24.30;67.50
65582;DHT22;52231;40.090;18.348;2022-11-20T10:44:30;24.50;65.50
65582;DHT22;52231;40.090;18.348;2022-11-20T10:47:19;24.80;65.80
65582;DHT22;52231;40.090;18.348;2022-11-20T10:49:53;25.30;64.50
65582;DHT22;52231;40.090;18.348;2022-11-20T11:00:23;25.40;63.00
65582;DHT22;52231;40.090;18.348;2022-11-20T11:02:54;25.60;61.40
65582;DHT22;52231;40.090;18.348;2022-11-20T11:08:10;25.20;61.60
65582;DHT22;52231;40.090;18.348;2022-11-20T11:10:57;25.30;62.00
65582;DHT22;52231;40.090;18.348;2022-11-20T11:13:29;25.30;62.00
65582;DHT22;52231;40.090;18.348;2022-11-20T11:15:58;24.90;61.80
65582;DHT22;52231;40.090;18.348;2022-11-20T11:18:33;24.40;62.70
65582;DHT22;52231;40.090;18.348;2022-11-20T11:21:04;24.00;64.10
65582;DHT22;52231;40.090;18.348;2022-11-20T11:23:38;23.50;66.00
65582;DHT22;52231;40.090;18.348;2022-11-20T11:26:25;23.30;67.70
65582;DHT22;52231;40.090;18.348;2022-11-20T11:29:00;23.00;68.20
65582;DHT22;52231;40.090;18.348;2022-11-20T11:31:47;22.80;69.50
65582;DHT22;52231;40.090;18.348;2022-11-20T11:34:16;22.60;70.00
65582;DHT22;52231;40.090;18.348;2022-11-20T11:36:56;22.30;70.30
65582;DHT22;52231;40.090;18.348;2022-11-20T11:39:26;22.30;71.20
65582;DHT22;52231;40.090;18.348;2022-11-20T11:41:55;22.20;71.80
65582;DHT22;52231;40.090;18.348;2022-11-20T11:44:28;22.00;71.30
65582;DHT22;52231;40.090;18.348;2022-11-20T11:47:30;21.80;72.70
65582;DHT22;52231;40.090;18.348;2022-11-20T11:50:29;21.70;72.70
65582;DHT22;52231;40.090;18.348;2022-11-20T11:58:27;21.10;74.60
65582;DHT22;52231;40.090;18.348;2022-11-20T12:01:03;20.90;75.40
65582;DHT22;52231;40.090;18.348;2022-11-20T12:03:38;20.80;75.60
65582;DHT22;52231;40.090;18.348;2022-11-20T12:06:12;20.70;76.10
65582;DHT22;52231;40.090;18.348;2022-11-20T12:08:54;20.50;76.70
65582;DHT22;52231;40.090;18.348;2022-11-20T12:11:49;20.30;77.40
65582;DHT22;52231;40.090;18.348;2022-11-20T12:14:40;20.00;77.50
65582;DHT22;52231;40.090;18.348;2022-11-20T12:17:12;19.80;78.10
65582;DHT22;52231;40.090;18.348;2022-11-20T12:19:45;19.60;78.60
65582;DHT22;52231;40.090;18.348;2022-11-20T12:25:28;19.30;80.20
65582;DHT22;52231;40.090;18.348;2022-11-20T12:28:34;19.00;81.70
65582;DHT22;52231;40.090;18.348;2022-11-20T12:58:02;15.30;89.30
65582;DHT22;52231;40.090;18.348;2022-11-20T13:00:33;15.20;90.20
65582;DHT22;52231;40.090;18.348;2022-11-20T13:06:18;15.40;91.40
65582;DHT22;52231;40.090;18.348;2022-11-20T13:08:53;15.60;91.50
65582;DHT22;52231;40.090;18.348;2022-11-20T13:11:59;15.70;91.60
65582;DHT22;52231;40.090;18.348;2022-11-20T13:14:34;15.90;91.60
65582;DHT22;52231;40.090;18.348;2022-11-20T13:17:30;15.90;91.30
65582;DHT22;52231;40.090;18.348;2022-11-20T13:20:03;15.80;90.60
65582;DHT22;52231;40.090;18.348;2022-11-20T13:22:56;15.70;90.60
65582;DHT22;52231;40.090;18.348;2022-11-20T13:25:38;15.70;91.20
65582;DHT22;52231;40.090;18.348;2022-11-20T13:34:53;15.60;91.10
65582;DHT22;52231;40.090;18.348;2022-11-20T13:41:22;15.30;91.50
65582;DHT22;52231;40.090;18.348;2022-11-20T13:43:59;15.30;92.00
65582;DHT22;52231;40.090;18.348;2022-11-20T13:46:40;15.30;92.40
65582;DHT22;52231;40.090;18.348;2022-11-20T13:49:26;15.30;92.50
65582;DHT22;52231;40.090;18.348;2022-11-20T13:54:43;15.50;92.80
65582;DHT22;52231;40.090;18.348;2022-11-20T14:00:03;15.70;93.00
65582;DHT22;52231;40.090;18.348;2022-11-20T14:02:37;15.70;92.90
65582;DHT22;52231;40.090;18.348;2022-11-20T14:05:05;15.60;92.80
65582;DHT22;52231;40.090;18.348;2022-11-20T14:07:41;15.60;92.70
65582;DHT22;52231;40.090;18.348;2022-11-20T14:10:29;15.60;92.70
65582;DHT22;52231;40.090;18.348;2022-11-20T14:13:09;15.60;92.80
65582;DHT22;52231;40.090;18.348;2022-11-20T14:15:37;15.50;92.50
65582;DHT22;52231;40.090;18.348;2022-11-20T14:18:13;15.30;92.30
65582;DHT22;52231;40.090;18.348;2022-11-20T14:20:43;15.30;92.30
65582;DHT22;52231;40.090;18.348;2022-11-20T14:23:11;15.30;92.50
65582;DHT22;52231;40.090;18.348;2022-11-20T14:25:45;15.30;92.30
65582;DHT22;52231;40.090;18.348;2022-11-20T14:28:34;15.30;92.40
65582;DHT22;52231;40.090;18.348;2022-11-20T14:31:25;15.30;92.50
65582;DHT22;52231;40.090;18.348;2022-11-20T14:33:55;15.30;92.60
65582;DHT22;52231;40.090;18.348;2022-11-20T14:36:24;15.30;92.70
65582;DHT22;52231;40.090;18.348;2022-11-20T14:38:53;15.30;92.60
65582;DHT22;52231;40.090;18.348;2022-11-20T14:41:22;15.30;92.40
65582;DHT22;52231;40.090;18.348;2022-11-20T14:43:56;15.20;92.20
65582;DHT22;52231;40.090;18.348;2022-11-20T14:46:26;15.30;92.30
65582;DHT22;52231;40.090;18.348;2022-11-20T14:48:56;15.30;92.20
65582;DHT22;52231;40.090;18.348;2022-11-20T14:56:40;15.30;92.10
65582;DHT22;52231;40.090;18.348;2022-11-20T14:59:09;15.20;91.90
65582;DHT22;52231;40.090;18.348;2022-11-20T15:01:37;15.10;92.00
65582;DHT22;52231;40.090;18.348;2022-11-20T15:04:11;15.00;91.80
65582;DHT22;52231;40.090;18.348;2022-11-20T15:06:59;15.00;92.10
65582;DHT22;52231;40.090;18.348;2022-11-20T15:09:27;15.00;92.30
65582;DHT22;52231;40.090;18.348;2022-11-20T15:11:57;15.00;92.30
65582;DHT22;52231;40.090;18.348;2022-11-20T15:14:28;15.00;92.30
65582;DHT22;52231;40.090;18.348;2022-11-20T15:17:04;14.90;92.30
65582;DHT22;52231;40.090;18.348;2022-11-20T15:19:33;14.80;92.50
65582;DHT22;52231;40.090;18.348;2022-11-20T15:22:02;14.80;92.50
65582;DHT22;52231;40.090;18.348;2022-11-20T15:24:30;14.80;92.60
65582;DHT22;52231;40.090;18.348;2022-11-20T15:26:59;14.70;92.70
65582;DHT22;52231;40.090;18.348;2022-11-20T15:29:28;14.70;92.90
65582;DHT22;52231;40.090;18.348;2022-11-20T15:31:56;14.70;93.00
65582;DHT22;52231;40.090;18.348;2022-11-20T15:34:26;14.80;93.10
65582;DHT22;52231;40.090;18.348;2022-11-20T15:36:54;14.80;93.10
65582;DHT22;52231;40.090;18.348;2022-11-20T15:39:22;14.70;93.10
65582;DHT22;52231;40.090;18.348;2022-11-20T15:41:50;14.70;93.10
65582;DHT22;52231;40.090;18.348;2022-11-20T15:44:18;14.70;93.20
65582;DHT22;52231;40.090;18.348;2022-11-20T15:46:46;14.60;93.30
65582;DHT22;52231;40.090;18.348;2022-11-20T15:49:16;14.60;93.30
65582;DHT22;52231;40.090;18.348;2022-11-20T15:51:50;14.60;93.20
65582;DHT22;52231;40.090;18.348;2022-11-20T15:54:21;14.50;93.30
65582;DHT22;52231;40.090;18.348;2022-11-20T15:56:55;14.50;93.30
65582;DHT22;52231;40.090;18.348;2022-11-20T15:59:23;14.50;93.30
65582;DHT22;52231;40.090;18.348;2022-11-20T16:01:51;14.40;93.30
65582;DHT22;52231;40.090;18.348;2022-11-20T16:04:19;14.30;93.30
65582;DHT22;52231;40.090;18.348;2022-11-20T16:06:47;14.30;93.30
65582;DHT22;52231;40.090;18.348;2022-11-20T16:09:15;14.30;93.50
65582;DHT22;52231;40.090;18.348;2022-11-20T16:11:43;14.30;93.50
65582;DHT22;52231;40.090;18.348;2022-11-20T16:14:11;14.30;93.60
65582;DHT22;52231;40.090;18.348;2022-11-20T16:16:58;14.30;93.60
65582;DHT22;52231;40.090;18.348;2022-11-20T16:19:26;14.20;93.60
65582;DHT22;52231;40.090;18.348;2022-11-20T16:21:54;14.20;93.70
65582;DHT22;52231;40.090;18.348;2022-11-20T16:24:26;14.20;93.60
65582;DHT22;52231;40.090;18.348;2022-11-20T16:26:55;14.20;93.70
65582;DHT22;52231;40.090;18.348;2022-11-20T16:29:23;14.30;93.70
65582;DHT22;52231;40.090;18.348;2022-11-20T16:31:52;14.30;93.70
65582;DHT22;52231;40.090;18.348;2022-11-20T16:34:20;14.30;93.80
65582;DHT22;52231;40.090;18.348;2022-11-20T16:36:48;14.30;93.80
65582;DHT22;52231;40.090;18.348;2022-11-20T16:39:16;14.40;93.80
65582;DHT22;52231;40.090;18.348;2022-11-20T16:41:47;14.40;93.80
65582;DHT22;52231;40.090;18.348;2022-11-20T16:44:15;14.40;93.80
65582;DHT22;52231;40.090;18.348;2022-11-20T16:46:43;14.40;93.90
65582;DHT22;52231;40.090;18.348;2022-11-20T16:49:12;14.30;93.80
65582;DHT22;52231;40.090;18.348;2022-11-20T16:51:41;14.30;93.80
65582;DHT22;52231;40.090;18.348;2022-11-20T16:54:10;14.20;93.80
65582;DHT22;52231;40.090;18.348;2022-11-20T16:56:39;14.10;93.70
65582;DHT22;52231;40.090;18.348;2022-11-20T16:59:07;14.00;93.70
65582;DHT22;52231;40.090;18.348;2022-11-20T17:01:35;13.90;93.70
65582;DHT22;52231;40.090;18.348;2022-11-20T17:04:06;13.80;93.80
65582;DHT22;52231;40.090;18.348;2022-11-20T17:06:36;13.80;93.80
65582;DHT22;52231;40.090;18.348;2022-11-20T17:09:06;13.80;93.80
65582;DHT22;52231;40.090;18.348;2022-11-20T17:11:37;13.80;93.90
65582;DHT22;52231;40.090;18.348;2022-11-20T17:14:05;13.80;93.90
65582;DHT22;52231;40.090;18.348;2022-11-20T17:16:36;13.80;93.90
65582;DHT22;52231;40.090;18.348;2022-11-20T17:19:05;13.70;93.80
65582;DHT22;52231;40.090;18.348;2022-11-20T17:21:34;13.70;93.90
65582;DHT22;52231;40.090;18.348;2022-11-20T17:24:10;13.70;94.00
65582;DHT22;52231;40.090;18.348;2022-11-20T17:26:40;13.70;94.00
65582;DHT22;52231;40.090;18.348;2022-11-20T17:29:18;13.70;94.00
65582;DHT22;52231;40.090;18.348;2022-11-20T17:31:51;13.70;94.00
65582;DHT22;52231;40.090;18.348;2022-11-20T17:34:21;13.80;94.10
65582;DHT22;52231;40.090;18.348;2022-11-20T17:36:49;13.80;94.00
65582;DHT22;52231;40.090;18.348;2022-11-20T17:39:17;13.80;94.10
65582;DHT22;52231;40.090;18.348;2022-11-20T17:41:46;13.80;94.10
65582;DHT22;52231;40.090;18.348;2022-11-20T17:44:34;13.80;94.10
65582;DHT22;52231;40.090;18.348;2022-11-20T17:47:02;13.80;94.10
65582;DHT22;52231;40.090;18.348;2022-11-20T17:49:30;13.80;94.10
65582;DHT22;52231;40.090;18.348;2022-11-20T17:51:58;13.80;94.10